createdAt,value
2022-09-17T00:00:28.939Z,14.85
2022-09-17T00:03:04.779Z,14.76
2022-09-17T00:05:38.986Z,14.99
2022-09-17T00:08:15.639Z,15.00
2022-09-17T00:10:49.671Z,14.94
2022-09-17T00:13:24.201Z,14.86
2022-09-17T00:15:58.355Z,14.84
2022-09-17T00:18:36.916Z,14.92
2022-09-17T00:21:17.979Z,15.04
2022-09-17T00:23:55.329Z,15.15
2022-09-17T00:26:30.717Z,15.15
2022-09-17T00:29:06.360Z,15.17
2022-09-17T00:31:41.283Z,15.16
2022-09-17T00:34:17.401Z,15.18
2022-09-17T00:36:51.472Z,15.18
2022-09-17T00:39:25.864Z,15.26
2022-09-17T00:41:59.883Z,15.21
2022-09-17T00:44:44.554Z,15.30
2022-09-17T00:47:23.356Z,15.15
2022-09-17T00:50:02.902Z,15.24
2022-09-17T00:52:41.347Z,15.22
2022-09-17T00:55:20.852Z,15.17
2022-09-17T00:57:58.830Z,15.26
2022-09-17T01:00:33.595Z,15.25
2022-09-17T01:03:08.750Z,15.24
2022-09-17T01:05:50.148Z,15.22
2022-09-17T01:08:33.060Z,15.12
2022-09-17T01:11:22.207Z,15.06
2022-09-17T01:14:08.611Z,15.11
2022-09-17T01:16:53.847Z,15.25
2022-09-17T01:20:02.995Z,15.08
2022-09-17T01:22:54.275Z,15.15
2022-09-17T01:25:39.411Z,15.15
2022-09-17T01:28:34.171Z,14.71
2022-09-17T01:31:36.028Z,14.64
2022-09-17T01:34:21.549Z,14.51
2022-09-17T01:37:07.020Z,14.39
2022-09-17T01:39:50.033Z,14.31
2022-09-17T01:42:31.367Z,14.18
2022-09-17T01:45:11.296Z,14.23
2022-09-17T01:47:52.119Z,14.27
2022-09-17T01:50:31.159Z,14.36
2022-09-17T01:53:06.845Z,14.21
2022-09-17T01:55:44.939Z,14.14
2022-09-17T01:58:23.933Z,14.08
2022-09-17T02:01:03.659Z,14.09
2022-09-17T02:03:45.935Z,14.06
2022-09-17T02:06:27.277Z,14.05
2022-09-17T02:09:07.131Z,13.99
2022-09-17T02:11:44.476Z,13.84
2022-09-17T02:14:24.448Z,13.99
2022-09-17T02:17:06.968Z,13.89
2022-09-17T02:19:42.926Z,13.89
2022-09-17T02:22:25.940Z,13.82
2022-09-17T02:25:05.848Z,14.00
2022-09-17T02:27:49.243Z,13.93
2022-09-17T02:30:23.251Z,13.90
2022-09-17T02:32:57.733Z,14.00
2022-09-17T02:35:34.443Z,13.94
2022-09-17T02:38:08.886Z,14.11
2022-09-17T02:40:49.637Z,14.23
2022-09-17T02:43:33.731Z,14.18
2022-09-17T02:46:21.283Z,14.31
2022-09-17T02:49:12.421Z,14.13
2022-09-17T02:51:59.397Z,14.16
2022-09-17T02:54:42.344Z,14.04
2022-09-17T02:57:23.080Z,14.12
2022-09-17T03:00:05.457Z,14.18
2022-09-17T03:02:44.410Z,14.08
2022-09-17T03:05:20.456Z,14.14
2022-09-17T03:07:56.158Z,14.17
2022-09-17T03:10:33.673Z,14.20
2022-09-17T03:13:07.867Z,15.33
2022-09-17T03:15:42.201Z,15.45
2022-09-17T03:18:16.338Z,16.12
2022-09-17T03:20:50.876Z,15.57
2022-09-17T03:23:28.026Z,15.24
2022-09-17T03:26:02.444Z,15.02
2022-09-17T03:28:36.764Z,14.97
2022-09-17T03:31:11.227Z,14.72
2022-09-17T03:33:45.285Z,14.67
2022-09-17T03:36:19.701Z,14.50
2022-09-17T03:38:57.156Z,14.19
2022-09-17T03:41:31.456Z,14.17
2022-09-17T03:44:05.491Z,14.14
2022-09-17T03:46:39.864Z,14.19
2022-09-17T03:49:13.965Z,14.17
2022-09-17T03:51:48.304Z,14.17
2022-09-17T03:54:23.808Z,14.23
2022-09-17T03:56:58.466Z,13.97
2022-09-17T03:59:33.318Z,13.90
2022-09-17T04:02:08.035Z,13.69
2022-09-17T04:04:42.579Z,13.81
2022-09-17T04:07:16.677Z,13.84
2022-09-17T04:09:52.449Z,13.66
2022-09-17T04:12:26.589Z,14.62
2022-09-17T04:15:01.033Z,14.76
2022-09-17T04:17:35.077Z,14.57
2022-09-17T04:20:10.029Z,14.17
2022-09-17T04:22:44.577Z,13.98
2022-09-17T04:25:20.359Z,13.82
2022-09-17T04:27:54.388Z,13.74
2022-09-17T04:30:28.727Z,13.59
2022-09-17T04:33:02.791Z,13.40
2022-09-17T04:35:37.201Z,13.36
2022-09-17T04:38:13.819Z,13.37
2022-09-17T04:40:50.177Z,13.59
2022-09-17T04:43:24.189Z,13.44
2022-09-17T04:45:58.466Z,13.55
2022-09-17T04:48:32.728Z,13.79
2022-09-17T04:51:07.398Z,13.75
2022-09-17T04:53:41.485Z,13.76
2022-09-17T04:56:17.157Z,13.69
2022-09-17T04:58:51.277Z,13.82
2022-09-17T05:01:25.718Z,13.81
2022-09-17T05:03:59.792Z,13.88
2022-09-17T05:06:34.236Z,13.76
2022-09-17T05:09:08.281Z,13.86
2022-09-17T05:11:44.037Z,14.01
2022-09-17T05:14:18.150Z,13.95
2022-09-17T05:16:52.527Z,13.76
2022-09-17T05:19:26.697Z,13.54
2022-09-17T05:22:01.051Z,13.53
2022-09-17T05:24:39.309Z,13.59
2022-09-17T05:27:15.349Z,13.73
2022-09-17T05:29:49.408Z,13.51
2022-09-17T05:32:23.728Z,13.49
2022-09-17T05:34:57.774Z,13.62
2022-09-17T05:37:32.151Z,13.55
2022-09-17T05:40:08.272Z,13.55
2022-09-17T05:42:44.065Z,13.38
2022-09-17T05:45:18.135Z,13.35
2022-09-17T05:47:56.195Z,13.50
2022-09-17T05:50:31.230Z,13.56
2022-09-17T05:53:06.987Z,13.54
2022-09-17T05:55:41.352Z,13.59
2022-09-17T05:58:19.548Z,13.70
2022-09-17T06:00:53.642Z,13.82
2022-09-17T06:03:28.053Z,13.98
2022-09-17T06:06:02.223Z,13.89
2022-09-17T06:08:36.799Z,14.07
2022-09-17T06:11:11.248Z,14.21
2022-09-17T06:13:47.046Z,14.09
2022-09-17T06:16:22.389Z,14.04
2022-09-17T06:18:57.001Z,14.01
2022-09-17T06:21:31.096Z,14.04
2022-09-17T06:24:05.552Z,14.00
2022-09-17T06:26:39.734Z,14.07
2022-09-17T06:29:16.098Z,13.92
2022-09-17T06:31:50.406Z,14.01
2022-09-17T06:34:24.880Z,13.89
2022-09-17T06:36:58.905Z,14.01
2022-09-17T06:39:33.440Z,13.91
2022-09-17T06:42:08.122Z,13.96
2022-09-17T06:44:43.891Z,13.77
2022-09-17T06:47:18.035Z,13.62
2022-09-17T06:49:54.691Z,13.58
2022-09-17T06:52:29.292Z,13.52
2022-09-17T06:55:03.681Z,13.57
2022-09-17T06:57:38.288Z,13.60
2022-09-17T07:00:16.735Z,13.68
2022-09-17T07:02:57.813Z,13.59
2022-09-17T07:05:33.847Z,13.55
2022-09-17T07:08:07.941Z,13.73
2022-09-17T07:10:42.389Z,13.75
2022-09-17T07:13:16.707Z,13.80
2022-09-17T07:15:56.424Z,13.69
2022-09-17T07:18:30.829Z,13.83
2022-09-17T07:21:07.329Z,13.81
2022-09-17T07:23:41.631Z,13.69
2022-09-17T07:26:17.559Z,13.70
2022-09-17T07:28:51.952Z,13.70
2022-09-17T07:31:27.996Z,13.78
2022-09-17T07:34:02.044Z,14.11
2022-09-17T07:36:36.328Z,13.97
2022-09-17T07:39:11.643Z,13.78
2022-09-17T07:41:46.076Z,13.82
2022-09-17T07:44:20.099Z,13.95
2022-09-17T07:46:55.810Z,14.07
2022-09-17T07:49:29.946Z,14.03
2022-09-17T07:52:06.429Z,14.15
2022-09-17T07:54:40.450Z,13.99
2022-09-17T07:57:14.829Z,13.94
2022-09-17T07:59:48.981Z,13.98
2022-09-17T08:02:25.575Z,14.01
2022-09-17T08:04:59.986Z,13.95
2022-09-17T08:07:34.122Z,14.17
2022-09-17T08:10:09.659Z,14.03
2022-09-17T08:12:43.742Z,14.14
2022-09-17T08:15:18.563Z,14.22
2022-09-17T08:17:54.211Z,14.21
2022-09-17T08:20:29.323Z,14.15
2022-09-17T08:23:03.622Z,14.03
2022-09-17T08:25:38.007Z,14.00
2022-09-17T08:28:12.178Z,13.89
2022-09-17T08:30:48.344Z,13.95
2022-09-17T08:33:24.024Z,13.99
2022-09-17T08:35:59.560Z,13.88
2022-09-17T08:38:38.203Z,13.85
2022-09-17T08:41:24.145Z,13.72
2022-09-17T08:44:08.463Z,13.82
2022-09-17T08:46:48.826Z,13.83
2022-09-17T08:49:34.171Z,13.95
2022-09-17T08:52:47.527Z,13.80
2022-09-17T08:55:37.665Z,13.90
2022-09-17T08:58:47.935Z,14.03
2022-09-17T09:01:29.184Z,14.29
2022-09-17T09:04:37.082Z,14.34
2022-09-17T09:23:34.505Z,14.57
2022-09-17T10:24:00.913Z,14.23
2022-09-17T12:28:36.350Z,14.89
2022-09-17T12:31:19.065Z,14.82
2022-09-17T12:33:59.213Z,14.98
2022-09-17T12:36:39.131Z,14.83
2022-09-17T12:39:44.205Z,14.73
2022-09-17T12:42:35.464Z,14.66
2022-09-17T12:45:26.017Z,14.63
2022-09-17T12:48:26.017Z,14.57
2022-09-17T12:51:12.282Z,14.61
2022-09-17T12:53:56.291Z,14.45
2022-09-17T12:56:47.772Z,14.28
2022-09-17T12:59:27.498Z,14.33
2022-09-17T13:02:16.063Z,14.12
2022-09-17T13:05:18.256Z,13.86
2022-09-17T13:08:14.749Z,13.68
2022-09-17T13:11:22.621Z,13.65
2022-09-17T13:14:02.796Z,13.51
2022-09-17T13:16:44.619Z,13.81
2022-09-17T13:19:32.472Z,13.85
2022-09-17T13:22:10.125Z,14.18
2022-09-17T13:24:49.093Z,14.01
2022-09-17T13:27:25.859Z,13.83
2022-09-17T13:30:02.020Z,14.03
2022-09-17T13:32:51.470Z,13.73
2022-09-17T13:35:49.946Z,13.72
2022-09-17T13:38:25.060Z,13.62
2022-09-17T13:41:21.334Z,13.50
2022-09-17T13:43:57.633Z,13.44
2022-09-17T13:46:33.961Z,13.45
2022-09-17T13:49:16.507Z,13.42
2022-09-17T13:51:54.344Z,13.49
2022-09-17T13:54:40.062Z,13.55
2022-09-17T13:57:16.216Z,13.41
2022-09-17T13:59:56.381Z,13.45
2022-09-17T14:02:36.535Z,13.51
2022-09-17T14:05:34.723Z,13.47
2022-09-17T14:08:29.150Z,13.45
2022-09-17T14:11:37.088Z,13.52
2022-09-17T14:14:48.469Z,13.55
2022-09-17T14:17:51.945Z,13.45
2022-09-17T14:20:27.519Z,13.42
2022-09-17T14:23:03.565Z,13.49
2022-09-17T14:25:47.291Z,13.47
2022-09-17T14:28:32.382Z,13.55
2022-09-17T14:31:13.682Z,13.39
2022-09-17T14:33:49.343Z,13.34
2022-09-17T14:36:24.933Z,13.39
2022-09-17T14:38:59.403Z,13.29
2022-09-17T14:41:40.894Z,13.17
2022-09-17T14:44:20.012Z,13.24
2022-09-17T14:47:00.184Z,13.22
2022-09-17T14:49:35.496Z,13.19
2022-09-17T14:52:25.315Z,13.19
2022-09-17T14:55:20.440Z,13.12
2022-09-17T14:57:57.427Z,13.14
2022-09-17T15:00:35.624Z,13.06
2022-09-17T15:03:23.190Z,12.88
2022-09-17T15:05:57.894Z,13.08
2022-09-17T15:08:32.171Z,13.11
2022-09-17T15:11:13.037Z,13.08
2022-09-17T15:13:52.118Z,13.10
2022-09-17T15:16:27.897Z,13.14
2022-09-17T15:19:03.636Z,13.10
2022-09-17T15:21:43.250Z,12.97
2022-09-17T15:24:25.712Z,13.06
2022-09-17T15:27:04.780Z,13.04
2022-09-17T15:29:43.950Z,13.00
2022-09-17T15:32:19.141Z,12.96
2022-09-17T15:35:29.336Z,13.18
2022-09-17T15:38:23.226Z,13.24
2022-09-17T15:41:23.534Z,13.15
2022-09-17T15:44:28.924Z,13.11
2022-09-17T15:47:37.123Z,13.12
2022-09-17T15:50:17.029Z,13.01
2022-09-17T15:52:51.828Z,12.89
2022-09-17T15:55:36.031Z,12.70
2022-09-17T15:58:34.544Z,12.78
2022-09-17T16:01:55.065Z,12.89
2022-09-17T16:04:32.774Z,12.93
2022-09-17T16:07:34.956Z,13.10
2022-09-17T16:10:11.507Z,13.23
2022-09-17T16:12:45.597Z,12.93
2022-09-17T16:15:20.996Z,12.85
2022-09-17T16:17:56.081Z,12.93
2022-09-17T16:20:32.648Z,12.83
2022-09-17T16:23:06.692Z,12.92
2022-09-17T16:25:41.978Z,12.92
2022-09-17T16:28:19.731Z,13.12
2022-09-17T16:30:54.599Z,12.92
2022-09-17T16:33:29.061Z,12.86
2022-09-17T16:36:05.239Z,13.09
2022-09-17T16:38:40.592Z,13.03
2022-09-17T16:41:15.374Z,12.91
2022-09-17T16:43:49.472Z,12.85
2022-09-17T16:46:23.940Z,12.56
2022-09-17T16:48:58.176Z,12.64
2022-09-17T16:51:34.091Z,12.73
2022-09-17T16:54:08.446Z,12.47
2022-09-17T16:56:42.814Z,12.45
2022-09-17T16:59:18.431Z,12.48
2022-09-17T17:01:52.829Z,12.47
2022-09-17T17:04:27.014Z,12.69
2022-09-17T17:07:02.768Z,12.91
2022-09-17T17:09:38.093Z,12.79
2022-09-17T17:12:12.537Z,12.85
2022-09-17T17:14:50.127Z,12.61
2022-09-17T17:17:24.911Z,12.69
2022-09-17T17:20:00.470Z,12.72
2022-09-17T17:22:37.015Z,12.86
2022-09-17T17:25:12.650Z,12.67
2022-09-17T17:27:47.044Z,12.70
2022-09-17T17:30:22.175Z,12.58
2022-09-17T17:32:56.556Z,12.67
2022-09-17T17:35:30.715Z,12.59
2022-09-17T17:38:06.494Z,12.64
2022-09-17T17:40:40.697Z,12.54
2022-09-17T17:43:15.331Z,12.52
2022-09-17T17:45:49.740Z,12.60
2022-09-17T17:48:24.229Z,12.66
2022-09-17T17:51:03.483Z,12.57
2022-09-17T17:53:42.631Z,12.74
2022-09-17T17:56:16.743Z,12.60
2022-09-17T17:58:55.987Z,12.49
2022-09-17T18:01:31.648Z,12.52
2022-09-17T18:04:07.923Z,12.56
2022-09-17T18:06:42.838Z,12.52
2022-09-17T18:09:18.755Z,12.36
2022-09-17T18:11:54.386Z,12.55
2022-09-17T18:14:28.886Z,12.56
2022-09-17T18:17:02.989Z,12.48
2022-09-17T18:19:37.448Z,12.69
2022-09-17T18:22:11.809Z,12.50
2022-09-17T18:24:47.645Z,12.38
2022-09-17T18:27:21.931Z,12.44
2022-09-17T18:29:57.316Z,12.50
2022-09-17T18:32:31.590Z,12.42
2022-09-17T18:35:06.497Z,12.40
2022-09-17T18:37:40.565Z,12.43
2022-09-17T18:40:16.934Z,12.32
2022-09-17T18:42:51.570Z,12.33
2022-09-17T18:45:26.045Z,12.47
2022-09-17T18:48:00.242Z,12.38
2022-09-17T18:50:35.597Z,12.23
2022-09-17T18:53:09.664Z,12.37
2022-09-17T18:55:48.689Z,12.31
2022-09-17T18:58:23.091Z,12.48
2022-09-17T19:00:57.755Z,12.35
2022-09-17T19:03:33.148Z,12.25
2022-09-17T19:06:09.986Z,12.39
2022-09-17T19:08:46.421Z,12.35
2022-09-17T19:11:22.488Z,12.31
2022-09-17T19:13:57.411Z,12.33
2022-09-17T19:16:32.091Z,12.34
2022-09-17T19:19:06.225Z,12.35
2022-09-17T19:21:40.665Z,12.33
2022-09-17T19:24:14.997Z,12.31
2022-09-17T19:26:51.199Z,12.33
2022-09-17T19:29:25.297Z,12.26
2022-09-17T19:31:59.722Z,12.31
2022-09-17T19:34:33.770Z,12.62
2022-09-17T19:37:08.080Z,12.47
2022-09-17T19:39:42.431Z,12.41
2022-09-17T19:42:18.256Z,12.39
2022-09-17T19:44:53.256Z,12.31
2022-09-17T19:47:29.565Z,12.25
2022-09-17T19:50:04.046Z,12.32
2022-09-17T19:52:38.716Z,12.38
2022-09-17T19:55:13.533Z,12.27
2022-09-17T19:57:49.578Z,12.26
2022-09-17T20:00:23.954Z,12.26
2022-09-17T20:02:58.389Z,12.27
2022-09-17T20:05:34.042Z,12.24
2022-09-17T20:08:08.465Z,12.56
2022-09-17T20:10:42.493Z,12.99
2022-09-17T20:13:20.354Z,12.96
2022-09-17T20:15:54.436Z,12.50
2022-09-17T20:18:28.970Z,12.43
2022-09-17T20:21:08.132Z,12.28
2022-09-17T20:23:42.903Z,12.53
2022-09-17T20:26:17.830Z,12.91
2022-09-17T20:28:54.904Z,12.66
2022-09-17T20:32:05.972Z,12.46
2022-09-17T20:34:41.072Z,12.09
2022-09-17T20:37:15.078Z,12.14
2022-09-17T20:39:49.605Z,12.14
2022-09-17T20:42:23.651Z,12.14
2022-09-17T20:44:58.012Z,12.01
2022-09-17T20:47:33.463Z,11.88
2022-09-17T20:50:09.901Z,11.89
2022-09-17T20:52:44.200Z,11.87
2022-09-17T20:55:18.793Z,11.99
2022-09-17T20:57:54.015Z,11.94
2022-09-17T21:00:29.417Z,11.91
2022-09-17T21:03:05.723Z,11.80
2022-09-17T21:05:40.147Z,11.92
2022-09-17T21:08:14.308Z,11.83
2022-09-17T21:10:48.819Z,11.76
2022-09-17T21:13:22.846Z,11.89
2022-09-17T21:15:58.253Z,11.76
2022-09-17T21:18:38.768Z,11.82
2022-09-17T21:21:15.245Z,11.81
2022-09-17T21:23:49.447Z,11.76
2022-09-17T21:26:24.971Z,11.83
2022-09-17T21:28:59.598Z,11.71
2022-09-17T21:31:36.813Z,11.71
2022-09-17T21:34:14.401Z,11.77
2022-09-17T21:36:49.926Z,11.75
2022-09-17T21:39:24.290Z,11.71
2022-09-17T21:41:58.660Z,11.71
2022-09-17T21:44:32.682Z,11.70
2022-09-17T21:47:11.741Z,11.69
2022-09-17T21:49:50.254Z,11.54
2022-09-17T21:52:24.821Z,11.57
2022-09-17T21:54:59.050Z,11.49
2022-09-17T21:57:33.390Z,11.36
2022-09-17T22:00:09.738Z,11.32
2022-09-17T22:02:44.261Z,11.09
2022-09-17T22:05:19.809Z,11.13
2022-09-17T22:07:54.088Z,11.06
2022-09-17T22:10:28.608Z,10.99
2022-09-17T22:13:02.995Z,11.19
2022-09-17T22:15:37.112Z,11.11
2022-09-17T22:18:13.049Z,11.14
2022-09-17T22:20:48.572Z,11.11
2022-09-17T22:23:23.044Z,11.20
2022-09-17T22:26:04.321Z,11.14
2022-09-17T22:28:38.734Z,11.09
2022-09-17T22:31:13.958Z,11.07
2022-09-17T22:33:50.083Z,11.03
2022-09-17T22:36:27.390Z,10.98
2022-09-17T22:39:01.766Z,10.98
2022-09-17T22:41:37.520Z,10.95
2022-09-17T22:44:14.248Z,11.09
2022-09-17T22:46:50.234Z,10.94
2022-09-17T22:49:24.548Z,10.97
2022-09-17T22:52:00.013Z,10.96
2022-09-17T22:54:34.328Z,10.94
2022-09-17T22:57:08.968Z,10.93
2022-09-17T22:59:43.650Z,10.96
2022-09-17T23:02:17.725Z,10.97
2022-09-17T23:04:52.847Z,10.94
2022-09-17T23:07:28.793Z,10.96
2022-09-17T23:10:03.417Z,10.98
2022-09-17T23:12:37.546Z,11.09
2022-09-17T23:15:12.048Z,11.23
2022-09-17T23:17:46.053Z,11.25
2022-09-17T23:20:20.393Z,11.21
2022-09-17T23:22:55.908Z,11.21
2022-09-17T23:25:30.209Z,11.32
2022-09-17T23:28:04.588Z,11.16
2022-09-17T23:30:38.888Z,11.22
2022-09-17T23:33:13.754Z,11.28
2022-09-17T23:35:48.212Z,11.20
2022-09-17T23:38:23.634Z,11.19
2022-09-17T23:41:12.705Z,11.24
2022-09-17T23:43:48.768Z,11.26
2022-09-17T23:46:25.419Z,11.27
2022-09-17T23:49:00.196Z,11.31
2022-09-17T23:51:37.293Z,11.25
2022-09-17T23:54:12.928Z,11.28
2022-09-17T23:56:47.274Z,11.31
2022-09-17T23:59:21.372Z,11.32
